createdAt,value
2023-06-16T07:00:55.060Z,20.64
2023-06-16T07:03:58.010Z,20.71
2023-06-16T07:07:01.006Z,20.79
2023-06-16T07:10:05.082Z,20.96
2023-06-16T07:13:07.766Z,20.87
2023-06-16T07:16:12.024Z,20.68
2023-06-16T07:19:14.570Z,20.72
2023-06-16T07:22:17.389Z,21.45
2023-06-16T07:25:20.222Z,21.54
2023-06-16T07:28:23.095Z,21.68
2023-06-16T07:31:27.120Z,21.46
2023-06-16T07:34:29.795Z,21.63
2023-06-16T07:37:32.274Z,21.49
2023-06-16T07:40:35.038Z,21.63
2023-06-16T07:43:37.601Z,21.52
2023-06-16T07:46:46.501Z,21.54
2023-06-16T07:49:49.048Z,21.61
2023-06-16T07:52:52.351Z,21.94
2023-06-16T07:55:54.790Z,21.93
2023-06-16T07:58:57.710Z,22.05
2023-06-16T08:02:02.371Z,22.31
2023-06-16T08:05:05.856Z,22.16
2023-06-16T08:08:08.308Z,22.07
2023-06-16T08:11:11.159Z,22.07
2023-06-16T08:14:13.614Z,21.78
2023-06-16T08:17:17.995Z,21.53
2023-06-16T08:20:21.730Z,21.84
2023-06-16T08:23:24.772Z,21.74
2023-06-16T08:26:27.192Z,21.74
2023-06-16T08:29:31.337Z,21.93
2023-06-16T08:32:35.082Z,22.44
2023-06-16T08:35:37.843Z,22.53
2023-06-16T08:38:41.750Z,22.27
2023-06-16T08:41:45.299Z,22.53
2023-06-16T08:44:47.764Z,22.44
2023-06-16T08:47:52.401Z,22.62
2023-06-16T08:50:56.224Z,22.84
2023-06-16T08:54:01.899Z,23.08
2023-06-16T08:57:05.336Z,23.32
2023-06-16T09:00:11.182Z,22.91
2023-06-16T09:03:15.093Z,23.24
2023-06-16T09:06:18.034Z,23.17
2023-06-16T09:09:20.639Z,23.34
2023-06-16T09:12:23.359Z,23.41
2023-06-16T09:15:26.562Z,23.62
2023-06-16T09:18:39.909Z,24.06
2023-06-16T09:21:48.079Z,24.18
2023-06-16T09:24:56.943Z,24.20
2023-06-16T09:28:00.365Z,24.31
2023-06-16T09:31:11.827Z,24.09
2023-06-16T09:34:16.980Z,23.80
2023-06-16T09:37:20.532Z,23.28
2023-06-16T09:40:26.450Z,23.86
2023-06-16T09:43:29.415Z,24.02
2023-06-16T09:46:31.947Z,24.13
2023-06-16T09:49:36.009Z,24.11
2023-06-16T09:52:38.443Z,24.12
2023-06-16T09:55:42.018Z,24.16
2023-06-16T09:58:45.125Z,24.53
2023-06-16T10:01:47.931Z,24.65
2023-06-16T10:04:52.536Z,24.85
2023-06-16T10:07:56.604Z,25.14
2023-06-16T10:10:59.766Z,24.93
2023-06-16T10:14:02.693Z,24.81
2023-06-16T10:17:06.769Z,24.56
2023-06-16T10:20:11.973Z,24.68
2023-06-16T10:23:14.774Z,24.85
2023-06-16T10:26:17.266Z,24.86
2023-06-16T10:29:21.459Z,24.68
2023-06-16T10:32:26.164Z,24.78
2023-06-16T10:35:30.819Z,24.65
2023-06-16T10:38:34.520Z,24.78
2023-06-16T10:41:49.573Z,24.61
2023-06-16T10:44:52.546Z,24.48
2023-06-16T10:47:56.927Z,24.06
2023-06-16T10:51:00.978Z,24.40
2023-06-16T10:54:04.480Z,24.38
2023-06-16T10:57:12.231Z,24.07
2023-06-16T11:00:18.079Z,24.61
2023-06-16T11:03:21.898Z,24.53
2023-06-16T11:06:26.148Z,24.36
2023-06-16T11:09:29.806Z,24.45
2023-06-16T11:12:33.002Z,24.49
2023-06-16T11:15:35.864Z,24.44
2023-06-16T11:18:38.713Z,24.34
2023-06-16T11:21:44.772Z,24.49
2023-06-16T11:24:47.545Z,24.43
2023-06-16T11:27:50.076Z,24.34
2023-06-16T11:30:55.062Z,24.49
2023-06-16T11:33:57.572Z,24.39
2023-06-16T11:37:01.736Z,24.42
2023-06-16T11:40:06.525Z,24.74
2023-06-16T11:43:09.287Z,24.56
2023-06-16T11:46:12.125Z,24.43
2023-06-16T11:49:15.233Z,24.23
2023-06-16T11:52:19.286Z,24.34
2023-06-16T11:55:22.495Z,24.29
2023-06-16T11:58:26.096Z,24.40
2023-06-16T12:01:28.877Z,24.81
2023-06-16T12:04:34.910Z,24.71
2023-06-16T12:07:38.964Z,24.43
2023-06-16T12:10:44.619Z,24.76
2023-06-16T12:13:47.126Z,24.88
2023-06-16T12:16:50.263Z,24.94
2023-06-16T12:19:52.816Z,24.87
2023-06-16T12:22:57.186Z,24.90
2023-06-16T12:26:00.683Z,24.64
2023-06-16T12:29:08.851Z,24.48
2023-06-16T12:32:12.162Z,24.87
2023-06-16T12:35:25.621Z,25.21
2023-06-16T12:38:33.125Z,25.11
2023-06-16T12:41:36.154Z,25.12
2023-06-16T12:44:42.393Z,24.85
2023-06-16T12:47:45.624Z,24.38
2023-06-16T12:50:48.421Z,24.83
2023-06-16T12:53:52.502Z,25.32
2023-06-16T12:56:54.940Z,25.18
2023-06-16T12:59:57.615Z,25.25
2023-06-16T13:03:00.209Z,25.13
2023-06-16T13:06:03.860Z,24.98
2023-06-16T13:09:07.440Z,25.10
2023-06-16T13:12:10.293Z,24.99
2023-06-16T13:15:12.720Z,25.21
2023-06-16T13:18:15.437Z,25.57
2023-06-16T13:21:17.967Z,25.53
2023-06-16T13:24:22.075Z,25.32
2023-06-16T13:27:24.531Z,25.51
2023-06-16T13:30:27.270Z,24.89
2023-06-16T13:33:29.646Z,25.28
2023-06-16T13:36:33.674Z,25.24
2023-06-16T13:39:37.439Z,25.32
2023-06-16T13:42:40.174Z,25.64
2023-06-16T13:45:42.669Z,25.13
2023-06-16T13:48:45.506Z,25.35
2023-06-16T13:51:48.180Z,25.38
2023-06-16T13:54:52.368Z,25.13
2023-06-16T13:57:55.646Z,25.04
2023-06-16T14:00:58.368Z,25.04
2023-06-16T14:04:01.184Z,25.08
2023-06-16T14:07:03.918Z,24.98
2023-06-16T14:10:09.007Z,24.97
2023-06-16T14:13:12.567Z,24.94
2023-06-16T14:16:17.784Z,25.10
2023-06-16T14:19:20.367Z,25.15
2023-06-16T14:22:23.069Z,25.10
2023-06-16T14:25:27.123Z,25.16
2023-06-16T14:28:29.832Z,24.85
2023-06-16T14:31:32.364Z,24.63
2023-06-16T14:34:35.074Z,24.89
2023-06-16T14:37:37.490Z,24.92
2023-06-16T14:40:41.544Z,24.94
2023-06-16T14:43:44.087Z,25.25
2023-06-16T14:46:46.786Z,24.77
2023-06-16T14:49:49.296Z,25.01
2023-06-16T14:52:52.464Z,25.05
2023-06-16T14:55:56.340Z,25.00
2023-06-16T14:58:59.160Z,25.00
2023-06-16T15:02:03.338Z,25.21
2023-06-16T15:05:07.493Z,24.91
2023-06-16T15:08:10.029Z,24.71
2023-06-16T15:11:14.695Z,25.02
2023-06-16T15:14:17.168Z,25.01
2023-06-16T15:17:20.491Z,24.82
2023-06-16T15:20:23.046Z,24.65
2023-06-16T15:23:25.781Z,24.38
2023-06-16T15:26:31.371Z,24.53
2023-06-16T15:29:34.126Z,23.98
2023-06-16T15:32:38.771Z,23.87
2023-06-16T15:35:41.628Z,23.84
2023-06-16T15:38:44.100Z,23.88
2023-06-16T15:41:48.181Z,23.84
2023-06-16T15:44:50.731Z,24.06
2023-06-16T15:47:53.466Z,23.82
2023-06-16T15:50:55.900Z,23.66
